Skunkhollow, Arkansas
Current Conditions -  °F | °C
As of 1:58 AM on Friday 28 Nov 2014 (Local Time) from KLRF Reporting Station
Clear Clear  
Wind Chill: 28°   Ceiling: Unl
Heat Index: 28°   Visibility: 8mi
Dew Point: 26°   Wind: 0mph
Humidity: 92%   Direction: NA
Pressure: 30.4"   Gusts: NA
Location:  35.0822°N, 92.366°W
Report Text: KLRF 280758Z AUTO 00000KT 8SM CLR M02/M03 A3040 RMK AO2 SLP299 T10201032 $
Loading
Personal Weather Stations






























Interactive Weather Map New forecast layout! Learn more

10-Day Weather Forecast

Advertisements
Track Severe Weather on mobile